Pence, Indiana
Current Conditions -  °F | °C
As of 7:15 PM on Wednesday 26 Nov 2014 (Local Time) from KDNV Reporting Station
Scattered Clouds Scattered Clouds  
Wind Chill: 22°   Ceiling: Unl
Heat Index: 29°   Visibility: 10mi
Dew Point: 24°   Wind: 7mph
Humidity: 83%   Direction: 50°NE
Pressure: 30.06"   Gusts: NA
Location:  40.3333°N, 87.2831°W
Report Text: KDNV 270015Z AUTO 05006KT 10SM SCT100 M02/M04 A3006 RMK AO2 T10161042
Loading
Personal Weather Stations






























Interactive Weather Map New forecast layout! Learn more

10-Day Weather Forecast

Advertisements
Track Severe Weather on mobile